Luminous Kobe-2 — JJ3868 — position and weather

sailwx.info

Track history (hours):
 
Tides and Currents Weather Stations Pressure Air Temp Water Temp Dewpoint Dewpoint Depression Visibility Wind Speed Wind Dir Waves Ship Positions

Luminous Kobe-2

Last reported at 2015-Jan-30 05:25 UTC. Time now 2015-Jan-30 06:29 UTC.
Position N 34°41' E 135°11'.

Length 105 m; draft 4.5 m.

Type: Passenger vessel. MMSI: 431000469.

Date/timePositionNaut miles runAvg speedWind from/ knotsBaromVisibWave heightAir tempDewpointWater temp
2015-Jan-30 05:25N 34°41' E 135°11'2 2.7
2015-Jan-30 04:33N 34°39' E 135°11'3 2.6
2015-Jan-30 03:34N 34°37' E 135°14'4 3.9
2015-Jan-30 02:33N 34°41' E 135°11'0 0.0
2015-Jan-30 01:09N 34°41' E 135°11'0 0.0
2015-Jan-30 00:27N 34°41' E 135°11'0 0.0
2015-Jan-29 23:33N 34°41' E 135°11'0 0.0
2015-Jan-29 22:33N 34°41' E 135°11'0 0.0
2015-Jan-29 21:33N 34°41' E 135°11'0 0.0
2015-Jan-29 20:33N 34°41' E 135°11'0 0.0
2015-Jan-29 19:33N 34°41' E 135°11'0 0.0
2015-Jan-29 18:27N 34°41' E 135°11'0 0.0
2015-Jan-29 17:33N 34°41' E 135°11'0 0.0
2015-Jan-29 16:33N 34°41' E 135°11'0 0.0
2015-Jan-29 15:33N 34°41' E 135°11'0 0.0
2015-Jan-29 14:33N 34°41' E 135°11'0 0.0
2015-Jan-29 13:33N 34°41' E 135°11'0 0.0
2015-Jan-29 12:33N 34°41' E 135°11'5 5.3
2015-Jan-29 11:33N 34°36' E 135°08'2 1.7
2015-Jan-29 10:33N 34°36' E 135°06'6 4.8
2015-Jan-29 09:16N 34°41' E 135°11'0 0.0
2015-Jan-29 08:32N 34°41' E 135°11'5 4.8
2015-Jan-29 07:33N 34°38' E 135°07'5 4.3
2015-Jan-29 06:27N 34°41' E 135°11'0 0.0
2015-Jan-29 05:33N 34°41' E 135°11'2 2.4
2015-Jan-29 04:33N 34°38' E 135°11'3 2.7
2015-Jan-29 03:33N 34°37' E 135°14'4 4.1
2015-Jan-29 02:33N 34°41' E 135°11'0 0.0
2015-Jan-29 01:28N 34°41' E 135°11'0 0.0
2015-Jan-29 00:28N 34°41' E 135°11'0 0.0
2015-Jan-28 23:28N 34°41' E 135°11'0 0.0
2015-Jan-28 22:22N 34°41' E 135°11'0 0.0
2015-Jan-28 21:28N 34°41' E 135°11'0 0.0
2015-Jan-28 20:28N 34°41' E 135°11'0 0.0
2015-Jan-28 19:28N 34°41' E 135°11'0 0.0
2015-Jan-28 18:28N 34°41' E 135°11'0 0.0
2015-Jan-28 17:28N 34°41' E 135°11'0 0.0
2015-Jan-28 16:28N 34°41' E 135°11'0 0.0
2015-Jan-28 15:28N 34°41' E 135°11'0 0.0
2015-Jan-28 14:28N 34°41' E 135°11'0 0.0
2015-Jan-28 13:28N 34°41' E 135°11'0 0.0
2015-Jan-28 12:23N 34°41' E 135°11'6 6.9
2015-Jan-28 11:33N 34°36' E 135°07'1 1.4
2015-Jan-28 10:34N 34°36' E 135°06'6 6.2
2015-Jan-28 09:33N 34°41' E 135°11'0 0.0
2015-Jan-28 08:31N 34°41' E 135°11'5 5.0
2015-Jan-28 07:33N 34°38' E 135°07'5 4.5
2015-Jan-28 06:30N 34°41' E 135°11'0 0.0
2015-Jan-28 05:30N 34°41' E 135°11'2 1.7
2015-Jan-28 04:33N 34°39' E 135°11'3 2.8
2015-Jan-28 03:34N 34°37' E 135°13'4 4.0
2015-Jan-28 02:32N 34°41' E 135°11'0 0.0
2015-Jan-28 01:32N 34°41' E 135°11'0 0.0
2015-Jan-28 00:32N 34°41' E 135°11'0 0.0
2015-Jan-27 23:32N 34°41' E 135°11'0 0.0
2015-Jan-27 22:32N 34°41' E 135°11'0 0.0
2015-Jan-27 21:20N 34°41' E 135°11'0 0.0
2015-Jan-27 20:32N 34°41' E 135°11'0 0.0
2015-Jan-27 19:32N 34°41' E 135°11'0 0.0
2015-Jan-27 18:26N 34°41' E 135°11'0 0.0
2015-Jan-27 17:32N 34°41' E 135°11'0 0.0
2015-Jan-27 16:32N 34°41' E 135°11'0 0.0
2015-Jan-27 15:32N 34°41' E 135°11'0 0.0
2015-Jan-27 14:32N 34°41' E 135°11'0 0.0
2015-Jan-27 13:32N 34°41' E 135°11'0 0.0
2015-Jan-27 12:32N 34°41' E 135°11'6 5.6
2015-Jan-27 11:32N 34°36' E 135°07'1 1.4
2015-Jan-27 10:33N 34°36' E 135°06'6 6.2
2015-Jan-27 09:33N 34°41' E 135°11'0 0.0
2015-Jan-27 08:31N 34°41' E 135°11'4 4.6
2015-Jan-27 07:33N 34°38' E 135°08'4 4.3
2015-Jan-27 06:32N 34°41' E 135°11'0 0.0
2015-Jan-27 05:26N 34°41' E 135°11'2 2.5
2015-Jan-27 04:33N 34°39' E 135°11'1 1.2
2015-Jan-27 03:33N 34°38' E 135°12'3 3.2
2015-Jan-27 02:33N 34°41' E 135°11'0 0.0
2015-Jan-27 01:31N 34°41' E 135°11'0 0.0
2015-Jan-27 00:31N 34°41' E 135°11'0 0.0
2015-Jan-26 23:31N 34°41' E 135°11'0 0.0
2015-Jan-26 22:25N 34°41' E 135°11'0 0.0
2015-Jan-26 21:19N 34°41' E 135°11'0 0.0
2015-Jan-26 20:31N 34°41' E 135°11'0 0.0
2015-Jan-26 19:31N 34°41' E 135°11'0 0.0
2015-Jan-26 18:25N 34°41' E 135°11'0 0.0
2015-Jan-26 17:31N 34°41' E 135°11'0 0.0
2015-Jan-26 16:25N 34°41' E 135°11'0 0.0
2015-Jan-26 15:31N 34°41' E 135°11'0 0.0
2015-Jan-26 14:31N 34°41' E 135°11'0 0.0
2015-Jan-26 13:19N 34°41' E 135°11'0 0.0
2015-Jan-26 12:25N 34°41' E 135°11'6 6.8
2015-Jan-26 11:33N 34°36' E 135°07'1 1.3
2015-Jan-26 10:33N 34°37' E 135°06'6 6.2
2015-Jan-26 09:33N 34°41' E 135°11'0 0.0
2015-Jan-26 08:29N 34°41' E 135°11'4 4.5
2015-Jan-26 07:33N 34°38' E 135°08'4 4.0
2015-Jan-26 06:30N 34°41' E 135°11'0 0.0
2015-Jan-26 05:30N 34°41' E 135°11'2 2.1
2015-Jan-26 04:33N 34°39' E 135°11'3 2.6
2015-Jan-26 03:33N 34°37' E 135°13'4 4.2
2015-Jan-26 02:33N 34°41' E 135°11'0 0.0
2015-Jan-26 01:31N 34°41' E 135°11'0 0.0
2015-Jan-26 00:31N 34°41' E 135°11'0 0.0
2015-Jan-25 23:31N 34°41' E 135°11'0 0.0
2015-Jan-25 22:25N 34°41' E 135°11'0 0.0
2015-Jan-25 21:31N 34°41' E 135°11'0 0.0
2015-Jan-25 20:31N 34°41' E 135°11'0 0.0
2015-Jan-25 19:31N 34°41' E 135°11'0 0.0
2015-Jan-25 18:31N 34°41' E 135°11'0 0.0
2015-Jan-25 17:31N 34°41' E 135°11'0 0.0
2015-Jan-25 16:31N 34°41' E 135°11'0 0.0
2015-Jan-25 15:31N 34°41' E 135°11'0 0.0
2015-Jan-25 14:25N 34°41' E 135°11'0 0.0
2015-Jan-25 13:25N 34°41' E 135°11'0 0.0
2015-Jan-25 12:31N 34°41' E 135°11'5 5.7
2015-Jan-25 11:33N 34°36' E 135°07'1 0.9
2015-Jan-25 10:33N 34°37' E 135°06'6 6.0
2015-Jan-25 09:33N 34°41' E 135°11'2 2.0
2015-Jan-25 08:33N 34°39' E 135°11'2 2.5
2015-Jan-25 07:33N 34°37' E 135°14'4 3.9
2015-Jan-25 06:33N 34°41' E 135°11'0 0.0
2015-Jan-25 05:33N 34°41' E 135°11'2 2.1
2015-Jan-25 04:33N 34°39' E 135°11'3 2.5
2015-Jan-25 03:33N 34°37' E 135°14'4 4.0
2015-Jan-25 02:33N 34°41' E 135°11'0 0.0
2015-Jan-25 01:31N 34°41' E 135°11'0 0.0
2015-Jan-25 00:31N 34°41' E 135°11'0 0.0
2015-Jan-24 23:31N 34°41' E 135°11'0 0.0
2015-Jan-24 22:31N 34°41' E 135°11'0 0.0
2015-Jan-24 21:31N 34°41' E 135°11'0 0.0
2015-Jan-24 20:31N 34°41' E 135°11'0 0.0
2015-Jan-24 19:31N 34°41' E 135°11'0 0.0
2015-Jan-24 18:31N 34°41' E 135°11'0 0.0
2015-Jan-24 17:19N 34°41' E 135°11'0 0.0
2015-Jan-24 16:31N 34°41' E 135°11'0 0.0
2015-Jan-24 15:31N 34°41' E 135°11'0 0.0
2015-Jan-24 14:31N 34°41' E 135°11'0 0.0
2015-Jan-24 13:25N 34°41' E 135°11'0 0.0
2015-Jan-24 12:25N 34°41' E 135°11'6 6.6
2015-Jan-24 11:33N 34°36' E 135°07'1 1.2
2015-Jan-24 10:34N 34°36' E 135°06'6 6.3
2015-Jan-24 09:33N 34°41' E 135°11'2 2.1
2015-Jan-24 08:33N 34°39' E 135°11'3 2.5
2015-Jan-24 07:33N 34°37' E 135°14'4 3.9
2015-Jan-24 06:31N 34°41' E 135°11'0 0.0
2015-Jan-24 05:31N 34°41' E 135°11'2 2.2
2015-Jan-24 04:33N 34°39' E 135°11'3 2.6
2015-Jan-24 03:33N 34°37' E 135°14'4 3.8
2015-Jan-24 02:29N 34°41' E 135°11'0 0.0
2015-Jan-24 01:30N 34°41' E 135°11'0 0.0
2015-Jan-24 00:29N 34°41' E 135°11'0 0.0
2015-Jan-23 23:29N 34°41' E 135°11'0 0.0
2015-Jan-23 22:29N 34°41' E 135°11'0 0.0
2015-Jan-23 21:29N 34°41' E 135°11'0 0.0
2015-Jan-23 20:29N 34°41' E 135°11'0 0.0
2015-Jan-23 19:23N 34°41' E 135°11'0 0.0
2015-Jan-23 18:23N 34°41' E 135°11'0 0.0
2015-Jan-23 17:29N 34°41' E 135°11'0 0.0
2015-Jan-23 16:29N 34°41' E 135°11'0 0.0
2015-Jan-23 15:29N 34°41' E 135°11'0 0.0
2015-Jan-23 14:29N 34°41' E 135°11'0 0.0
2015-Jan-23 13:29N 34°41' E 135°11'0 0.0
2015-Jan-23 12:30N 34°41' E 135°11'6 6.2
2015-Jan-23 11:33N 34°36' E 135°07'1 0.7
2015-Jan-23 10:33N 34°37' E 135°06'6 6.2
2015-Jan-23 09:32N 34°41' E 135°11'0 0.0
2015-Jan-23 08:33N 34°41' E 135°11'4 4.3
2015-Jan-23 07:33N 34°38' E 135°08'4 4.2
2015-Jan-23 06:33N 34°41' E 135°11'0 0.0
2015-Jan-23 05:09N 34°41' E 135°11'2 4.0
2015-Jan-23 04:33N 34°38' E 135°11'3 2.7
2015-Jan-23 03:33N 34°37' E 135°14'4 4.5
2015-Jan-23 02:33N 34°41' E 135°11'0 0.0
2015-Jan-23 01:23N 34°41' E 135°11'0 0.0
2015-Jan-23 00:17N 34°41' E 135°11'0 0.0
2015-Jan-22 23:29N 34°41' E 135°11'0 0.0
2015-Jan-22 22:29N 34°41' E 135°11'0 0.0
2015-Jan-22 21:29N 34°41' E 135°11'0 0.0
2015-Jan-22 20:23N 34°41' E 135°11'0 0.0
2015-Jan-22 19:29N 34°41' E 135°11'0 0.0
2015-Jan-22 18:23N 34°41' E 135°11'0 0.0
2015-Jan-22 17:23N 34°41' E 135°11'0 0.0
2015-Jan-22 16:29N 34°41' E 135°11'0 0.0
2015-Jan-22 15:29N 34°41' E 135°11'0 0.0
2015-Jan-22 14:17N 34°41' E 135°11'0 0.0
2015-Jan-22 13:29N 34°41' E 135°11'0 0.0
2015-Jan-22 12:29N 34°41' E 135°11'7 7.7
2015-Jan-22 11:33N 34°35' E 135°06'2 1.5
2015-Jan-22 10:33N 34°36' E 135°07'6 4.9
2015-Jan-22 09:24N 34°41' E 135°11'5 5.5
2015-Jan-22 08:33N 34°37' E 135°08'5 4.4
2015-Jan-22 07:31N 34°41' E 135°11'0 0.0
2015-Jan-22 06:31N 34°41' E 135°11'0 0.0
2015-Jan-22 05:25N 34°41' E 135°11'2 2.3
2015-Jan-22 04:33N 34°39' E 135°11'3 2.6
2015-Jan-22 03:33N 34°37' E 135°14'4 3.7
2015-Jan-22 02:28N 34°41' E 135°11'0 0.0
2015-Jan-22 01:28N 34°41' E 135°11'0 0.0
2015-Jan-22 00:28N 34°41' E 135°11'0 0.0
2015-Jan-21 23:28N 34°41' E 135°11'0 0.0
2015-Jan-21 22:46N 34°41' E 135°11'0 0.0
2015-Jan-21 22:16N 34°41' E 135°11'0 0.0
2015-Jan-21 21:28N 34°41' E 135°11'0 0.0
2015-Jan-21 20:16N 34°41' E 135°11'0 0.0
2015-Jan-21 19:28N 34°41' E 135°11'0 0.0
2015-Jan-21 18:28N 34°41' E 135°11'0 0.0
2015-Jan-21 17:28N 34°41' E 135°11'0 0.0
2015-Jan-21 16:22N 34°41' E 135°11'0 0.0
2015-Jan-21 15:28N 34°41' E 135°11'0 0.0
2015-Jan-21 14:28N 34°41' E 135°11'0 0.0
2015-Jan-21 13:22N 34°41' E 135°11'0 0.0
2015-Jan-21 12:27N 34°41' E 135°11'6 7.0
2015-Jan-21 11:33N 34°36' E 135°07'1 1.3
2015-Jan-21 10:33N 34°36' E 135°06'6 5.6
2015-Jan-21 09:24N 34°41' E 135°11'0 0.0
2015-Jan-21 08:31N 34°41' E 135°11'5 5.1
2015-Jan-21 07:33N 34°38' E 135°07'5 5.0
2015-Jan-21 06:33N 34°41' E 135°11'0 0.0
2015-Jan-21 05:33N 34°41' E 135°11'2 2.4
2015-Jan-21 04:33N 34°38' E 135°11'2 2.4
2015-Jan-21 03:34N 34°37' E 135°13'4 4.1
2015-Jan-21 02:33N 34°41' E 135°11'0 0.0
2015-Jan-21 01:28N 34°41' E 135°11'0 0.0
2015-Jan-21 00:28N 34°41' E 135°11'0 0.0
2015-Jan-20 23:28N 34°41' E 135°11'0 0.0
2015-Jan-20 22:28N 34°41' E 135°11'0 0.0
2015-Jan-20 21:16N 34°41' E 135°11'0 0.0
2015-Jan-20 20:28N 34°41' E 135°11'0 0.0
2015-Jan-20 19:28N 34°41' E 135°11'0 0.0
2015-Jan-20 18:28N 34°41' E 135°11'0 0.0
2015-Jan-20 17:28N 34°41' E 135°11'0 0.0
2015-Jan-20 16:28N 34°41' E 135°11'0 0.0
2015-Jan-20 15:28N 34°41' E 135°11'0 0.0
2015-Jan-20 14:28N 34°41' E 135°11'0 0.0
2015-Jan-20 13:28N 34°41' E 135°11'0 0.0
2015-Jan-20 12:23N 34°41' E 135°11'6 7.2
2015-Jan-20 11:33N 34°36' E 135°07'1 1.1
2015-Jan-20 10:33N 34°36' E 135°06'6 6.1
2015-Jan-20 09:30N 34°41' E 135°11'0 0.0
2015-Jan-20 08:30N 34°41' E 135°11'5 5.1
2015-Jan-20 07:33N 34°38' E 135°07'5 4.7
2015-Jan-20 06:33N 34°41' E 135°11'0 0.0
2015-Jan-20 05:27N 34°41' E 135°11'  
Track history (hours):
 
Tides and Currents Weather Stations Pressure Air Temp Water Temp Dewpoint Dewpoint Depression Visibility Wind Speed Wind Dir Waves Ship Positions

Luminous Kobe-2

Last reported at 2015-Jan-30 05:25 UTC. Time now 2015-Jan-30 06:29 UTC.
Position N 34°41' E 135°11'.

Length 105 m; draft 4.5 m.

Type: Passenger vessel. MMSI: 431000469.

Date/timePositionNaut miles runAvg speedWind from/ knotsBaromVisibWave heightAir tempDewpointWater temp
2015-Jan-30 05:25N 34°41' E 135°11'2 2.7
2015-Jan-30 04:33N 34°39' E 135°11'3 2.6
2015-Jan-30 03:34N 34°37' E 135°14'4 3.9
2015-Jan-30 02:33N 34°41' E 135°11'0 0.0
2015-Jan-30 01:09N 34°41' E 135°11'0 0.0
2015-Jan-30 00:27N 34°41' E 135°11'0 0.0
2015-Jan-29 23:33N 34°41' E 135°11'0 0.0
2015-Jan-29 22:33N 34°41' E 135°11'0 0.0
2015-Jan-29 21:33N 34°41' E 135°11'0 0.0
2015-Jan-29 20:33N 34°41' E 135°11'0 0.0
2015-Jan-29 19:33N 34°41' E 135°11'0 0.0
2015-Jan-29 18:27N 34°41' E 135°11'0 0.0
2015-Jan-29 17:33N 34°41' E 135°11'0 0.0
2015-Jan-29 16:33N 34°41' E 135°11'0 0.0
2015-Jan-29 15:33N 34°41' E 135°11'0 0.0
2015-Jan-29 14:33N 34°41' E 135°11'0 0.0
2015-Jan-29 13:33N 34°41' E 135°11'0 0.0
2015-Jan-29 12:33N 34°41' E 135°11'5 5.3
2015-Jan-29 11:33N 34°36' E 135°08'2 1.7
2015-Jan-29 10:33N 34°36' E 135°06'6 4.8
2015-Jan-29 09:16N 34°41' E 135°11'0 0.0
2015-Jan-29 08:32N 34°41' E 135°11'5 4.8
2015-Jan-29 07:33N 34°38' E 135°07'5 4.3
2015-Jan-29 06:27N 34°41' E 135°11'0 0.0
2015-Jan-29 05:33N 34°41' E 135°11'2 2.4
2015-Jan-29 04:33N 34°38' E 135°11'3 2.7
2015-Jan-29 03:33N 34°37' E 135°14'4 4.1
2015-Jan-29 02:33N 34°41' E 135°11'0 0.0
2015-Jan-29 01:28N 34°41' E 135°11'0 0.0
2015-Jan-29 00:28N 34°41' E 135°11'0 0.0
2015-Jan-28 23:28N 34°41' E 135°11'0 0.0
2015-Jan-28 22:22N 34°41' E 135°11'0 0.0
2015-Jan-28 21:28N 34°41' E 135°11'0 0.0
2015-Jan-28 20:28N 34°41' E 135°11'0 0.0
2015-Jan-28 19:28N 34°41' E 135°11'0 0.0
2015-Jan-28 18:28N 34°41' E 135°11'0 0.0
2015-Jan-28 17:28N 34°41' E 135°11'0 0.0
2015-Jan-28 16:28N 34°41' E 135°11'0 0.0
2015-Jan-28 15:28N 34°41' E 135°11'0 0.0
2015-Jan-28 14:28N 34°41' E 135°11'0 0.0
2015-Jan-28 13:28N 34°41' E 135°11'0 0.0
2015-Jan-28 12:23N 34°41' E 135°11'6 6.9
2015-Jan-28 11:33N 34°36' E 135°07'1 1.4
2015-Jan-28 10:34N 34°36' E 135°06'6 6.2
2015-Jan-28 09:33N 34°41' E 135°11'0 0.0
2015-Jan-28 08:31N 34°41' E 135°11'5 5.0
2015-Jan-28 07:33N 34°38' E 135°07'5 4.5
2015-Jan-28 06:30N 34°41' E 135°11'0 0.0
2015-Jan-28 05:30N 34°41' E 135°11'2 1.7
2015-Jan-28 04:33N 34°39' E 135°11'3 2.8
2015-Jan-28 03:34N 34°37' E 135°13'4 4.0
2015-Jan-28 02:32N 34°41' E 135°11'0 0.0
2015-Jan-28 01:32N 34°41' E 135°11'0 0.0
2015-Jan-28 00:32N 34°41' E 135°11'0 0.0
2015-Jan-27 23:32N 34°41' E 135°11'0 0.0
2015-Jan-27 22:32N 34°41' E 135°11'0 0.0
2015-Jan-27 21:20N 34°41' E 135°11'0 0.0
2015-Jan-27 20:32N 34°41' E 135°11'0 0.0
2015-Jan-27 19:32N 34°41' E 135°11'0 0.0
2015-Jan-27 18:26N 34°41' E 135°11'0 0.0
2015-Jan-27 17:32N 34°41' E 135°11'0 0.0
2015-Jan-27 16:32N 34°41' E 135°11'0 0.0
2015-Jan-27 15:32N 34°41' E 135°11'0 0.0
2015-Jan-27 14:32N 34°41' E 135°11'0 0.0
2015-Jan-27 13:32N 34°41' E 135°11'0 0.0
2015-Jan-27 12:32N 34°41' E 135°11'6 5.6
2015-Jan-27 11:32N 34°36' E 135°07'1 1.4
2015-Jan-27 10:33N 34°36' E 135°06'6 6.2
2015-Jan-27 09:33N 34°41' E 135°11'0 0.0
2015-Jan-27 08:31N 34°41' E 135°11'4 4.6
2015-Jan-27 07:33N 34°38' E 135°08'4 4.3
2015-Jan-27 06:32N 34°41' E 135°11'0 0.0
2015-Jan-27 05:26N 34°41' E 135°11'2 2.5
2015-Jan-27 04:33N 34°39' E 135°11'1 1.2
2015-Jan-27 03:33N 34°38' E 135°12'3 3.2
2015-Jan-27 02:33N 34°41' E 135°11'0 0.0
2015-Jan-27 01:31N 34°41' E 135°11'0 0.0
2015-Jan-27 00:31N 34°41' E 135°11'0 0.0
2015-Jan-26 23:31N 34°41' E 135°11'0 0.0
2015-Jan-26 22:25N 34°41' E 135°11'0 0.0
2015-Jan-26 21:19N 34°41' E 135°11'0 0.0
2015-Jan-26 20:31N 34°41' E 135°11'0 0.0
2015-Jan-26 19:31N 34°41' E 135°11'0 0.0
2015-Jan-26 18:25N 34°41' E 135°11'0 0.0
2015-Jan-26 17:31N 34°41' E 135°11'0 0.0
2015-Jan-26 16:25N 34°41' E 135°11'0 0.0
2015-Jan-26 15:31N 34°41' E 135°11'0 0.0
2015-Jan-26 14:31N 34°41' E 135°11'0 0.0
2015-Jan-26 13:19N 34°41' E 135°11'0 0.0
2015-Jan-26 12:25N 34°41' E 135°11'6 6.8
2015-Jan-26 11:33N 34°36' E 135°07'1 1.3
2015-Jan-26 10:33N 34°37' E 135°06'6 6.2
2015-Jan-26 09:33N 34°41' E 135°11'0 0.0
2015-Jan-26 08:29N 34°41' E 135°11'4 4.5
2015-Jan-26 07:33N 34°38' E 135°08'4 4.0
2015-Jan-26 06:30N 34°41' E 135°11'0 0.0
2015-Jan-26 05:30N 34°41' E 135°11'2 2.1
2015-Jan-26 04:33N 34°39' E 135°11'3 2.6
2015-Jan-26 03:33N 34°37' E 135°13'4 4.2
2015-Jan-26 02:33N 34°41' E 135°11'0 0.0
2015-Jan-26 01:31N 34°41' E 135°11'0 0.0
2015-Jan-26 00:31N 34°41' E 135°11'0 0.0
2015-Jan-25 23:31N 34°41' E 135°11'0 0.0
2015-Jan-25 22:25N 34°41' E 135°11'0 0.0
2015-Jan-25 21:31N 34°41' E 135°11'0 0.0
2015-Jan-25 20:31N 34°41' E 135°11'0 0.0
2015-Jan-25 19:31N 34°41' E 135°11'0 0.0
2015-Jan-25 18:31N 34°41' E 135°11'0 0.0
2015-Jan-25 17:31N 34°41' E 135°11'0 0.0
2015-Jan-25 16:31N 34°41' E 135°11'0 0.0
2015-Jan-25 15:31N 34°41' E 135°11'0 0.0
2015-Jan-25 14:25N 34°41' E 135°11'0 0.0
2015-Jan-25 13:25N 34°41' E 135°11'0 0.0
2015-Jan-25 12:31N 34°41' E 135°11'5 5.7
2015-Jan-25 11:33N 34°36' E 135°07'1 0.9
2015-Jan-25 10:33N 34°37' E 135°06'6 6.0
2015-Jan-25 09:33N 34°41' E 135°11'2 2.0
2015-Jan-25 08:33N 34°39' E 135°11'2 2.5
2015-Jan-25 07:33N 34°37' E 135°14'4 3.9
2015-Jan-25 06:33N 34°41' E 135°11'0 0.0
2015-Jan-25 05:33N 34°41' E 135°11'2 2.1
2015-Jan-25 04:33N 34°39' E 135°11'3 2.5
2015-Jan-25 03:33N 34°37' E 135°14'4 4.0
2015-Jan-25 02:33N 34°41' E 135°11'0 0.0
2015-Jan-25 01:31N 34°41' E 135°11'0 0.0
2015-Jan-25 00:31N 34°41' E 135°11'0 0.0
2015-Jan-24 23:31N 34°41' E 135°11'0 0.0
2015-Jan-24 22:31N 34°41' E 135°11'0 0.0
2015-Jan-24 21:31N 34°41' E 135°11'0 0.0
2015-Jan-24 20:31N 34°41' E 135°11'0 0.0
2015-Jan-24 19:31N 34°41' E 135°11'0 0.0
2015-Jan-24 18:31N 34°41' E 135°11'0 0.0
2015-Jan-24 17:19N 34°41' E 135°11'0 0.0
2015-Jan-24 16:31N 34°41' E 135°11'0 0.0
2015-Jan-24 15:31N 34°41' E 135°11'0 0.0
2015-Jan-24 14:31N 34°41' E 135°11'0 0.0
2015-Jan-24 13:25N 34°41' E 135°11'0 0.0
2015-Jan-24 12:25N 34°41' E 135°11'6 6.6
2015-Jan-24 11:33N 34°36' E 135°07'1 1.2
2015-Jan-24 10:34N 34°36' E 135°06'6 6.3
2015-Jan-24 09:33N 34°41' E 135°11'2 2.1
2015-Jan-24 08:33N 34°39' E 135°11'3 2.5
2015-Jan-24 07:33N 34°37' E 135°14'4 3.9
2015-Jan-24 06:31N 34°41' E 135°11'0 0.0
2015-Jan-24 05:31N 34°41' E 135°11'2 2.2
2015-Jan-24 04:33N 34°39' E 135°11'3 2.6
2015-Jan-24 03:33N 34°37' E 135°14'4 3.8
2015-Jan-24 02:29N 34°41' E 135°11'0 0.0
2015-Jan-24 01:30N 34°41' E 135°11'0 0.0
2015-Jan-24 00:29N 34°41' E 135°11'0 0.0
2015-Jan-23 23:29N 34°41' E 135°11'0 0.0
2015-Jan-23 22:29N 34°41' E 135°11'0 0.0
2015-Jan-23 21:29N 34°41' E 135°11'0 0.0
2015-Jan-23 20:29N 34°41' E 135°11'0 0.0
2015-Jan-23 19:23N 34°41' E 135°11'0 0.0
2015-Jan-23 18:23N 34°41' E 135°11'0 0.0
2015-Jan-23 17:29N 34°41' E 135°11'0 0.0
2015-Jan-23 16:29N 34°41' E 135°11'0 0.0
2015-Jan-23 15:29N 34°41' E 135°11'0 0.0
2015-Jan-23 14:29N 34°41' E 135°11'0 0.0
2015-Jan-23 13:29N 34°41' E 135°11'0 0.0
2015-Jan-23 12:30N 34°41' E 135°11'6 6.2
2015-Jan-23 11:33N 34°36' E 135°07'1 0.7
2015-Jan-23 10:33N 34°37' E 135°06'6 6.2
2015-Jan-23 09:32N 34°41' E 135°11'0 0.0
2015-Jan-23 08:33N 34°41' E 135°11'4 4.3
2015-Jan-23 07:33N 34°38' E 135°08'4 4.2
2015-Jan-23 06:33N 34°41' E 135°11'0 0.0
2015-Jan-23 05:09N 34°41' E 135°11'2 4.0
2015-Jan-23 04:33N 34°38' E 135°11'3 2.7
2015-Jan-23 03:33N 34°37' E 135°14'4 4.5
2015-Jan-23 02:33N 34°41' E 135°11'0 0.0
2015-Jan-23 01:23N 34°41' E 135°11'0 0.0
2015-Jan-23 00:17N 34°41' E 135°11'0 0.0
2015-Jan-22 23:29N 34°41' E 135°11'0 0.0
2015-Jan-22 22:29N 34°41' E 135°11'0 0.0
2015-Jan-22 21:29N 34°41' E 135°11'0 0.0
2015-Jan-22 20:23N 34°41' E 135°11'0 0.0
2015-Jan-22 19:29N 34°41' E 135°11'0 0.0
2015-Jan-22 18:23N 34°41' E 135°11'0 0.0
2015-Jan-22 17:23N 34°41' E 135°11'0 0.0
2015-Jan-22 16:29N 34°41' E 135°11'0 0.0
2015-Jan-22 15:29N 34°41' E 135°11'0 0.0
2015-Jan-22 14:17N 34°41' E 135°11'0 0.0
2015-Jan-22 13:29N 34°41' E 135°11'0 0.0
2015-Jan-22 12:29N 34°41' E 135°11'7 7.7
2015-Jan-22 11:33N 34°35' E 135°06'2 1.5
2015-Jan-22 10:33N 34°36' E 135°07'6 4.9
2015-Jan-22 09:24N 34°41' E 135°11'5 5.5
2015-Jan-22 08:33N 34°37' E 135°08'5 4.4
2015-Jan-22 07:31N 34°41' E 135°11'0 0.0
2015-Jan-22 06:31N 34°41' E 135°11'0 0.0
2015-Jan-22 05:25N 34°41' E 135°11'2 2.3
2015-Jan-22 04:33N 34°39' E 135°11'3 2.6
2015-Jan-22 03:33N 34°37' E 135°14'4 3.7
2015-Jan-22 02:28N 34°41' E 135°11'0 0.0
2015-Jan-22 01:28N 34°41' E 135°11'0 0.0
2015-Jan-22 00:28N 34°41' E 135°11'0 0.0
2015-Jan-21 23:28N 34°41' E 135°11'0 0.0
2015-Jan-21 22:46N 34°41' E 135°11'0 0.0
2015-Jan-21 22:16N 34°41' E 135°11'0 0.0
2015-Jan-21 21:28N 34°41' E 135°11'0 0.0
2015-Jan-21 20:16N 34°41' E 135°11'0 0.0
2015-Jan-21 19:28N 34°41' E 135°11'0 0.0
2015-Jan-21 18:28N 34°41' E 135°11'0 0.0
2015-Jan-21 17:28N 34°41' E 135°11'0 0.0
2015-Jan-21 16:22N 34°41' E 135°11'0 0.0
2015-Jan-21 15:28N 34°41' E 135°11'0 0.0
2015-Jan-21 14:28N 34°41' E 135°11'0 0.0
2015-Jan-21 13:22N 34°41' E 135°11'0 0.0
2015-Jan-21 12:27N 34°41' E 135°11'6 7.0
2015-Jan-21 11:33N 34°36' E 135°07'1 1.3
2015-Jan-21 10:33N 34°36' E 135°06'6 5.6
2015-Jan-21 09:24N 34°41' E 135°11'0 0.0
2015-Jan-21 08:31N 34°41' E 135°11'5 5.1
2015-Jan-21 07:33N 34°38' E 135°07'5 5.0
2015-Jan-21 06:33N 34°41' E 135°11'0 0.0
2015-Jan-21 05:33N 34°41' E 135°11'2 2.4
2015-Jan-21 04:33N 34°38' E 135°11'2 2.4
2015-Jan-21 03:34N 34°37' E 135°13'4 4.1
2015-Jan-21 02:33N 34°41' E 135°11'0 0.0
2015-Jan-21 01:28N 34°41' E 135°11'0 0.0
2015-Jan-21 00:28N 34°41' E 135°11'0 0.0
2015-Jan-20 23:28N 34°41' E 135°11'0 0.0
2015-Jan-20 22:28N 34°41' E 135°11'0 0.0
2015-Jan-20 21:16N 34°41' E 135°11'0 0.0
2015-Jan-20 20:28N 34°41' E 135°11'0 0.0
2015-Jan-20 19:28N 34°41' E 135°11'0 0.0
2015-Jan-20 18:28N 34°41' E 135°11'0 0.0
2015-Jan-20 17:28N 34°41' E 135°11'0 0.0
2015-Jan-20 16:28N 34°41' E 135°11'0 0.0
2015-Jan-20 15:28N 34°41' E 135°11'0 0.0
2015-Jan-20 14:28N 34°41' E 135°11'0 0.0
2015-Jan-20 13:28N 34°41' E 135°11'0 0.0
2015-Jan-20 12:23N 34°41' E 135°11'6 7.2
2015-Jan-20 11:33N 34°36' E 135°07'1 1.1
2015-Jan-20 10:33N 34°36' E 135°06'6 6.1
2015-Jan-20 09:30N 34°41' E 135°11'0 0.0
2015-Jan-20 08:30N 34°41' E 135°11'5 5.1
2015-Jan-20 07:33N 34°38' E 135°07'5 4.7
2015-Jan-20 06:33N 34°41' E 135°11'0 0.0
2015-Jan-20 05:27N 34°41' E 135°11'  

Dump ship's entire track history